Lorraine L — WDB8580 — position and weather

sailwx.info

Track history (hours):
 
Tides and Currents Weather Stations Pressure Air Temp Water Temp Dewpoint Dewpoint Depression Visibility Wind Speed Wind Dir Waves Ship Positions

Lorraine L

Owner: Highland Towing LLC, Metairie, LA. More information available from US FCC via Universal Licensing System and Coast Guard Vessel Documentation Center.

Last reported at 2015-Apr-26 18:03 UTC. Time now 2015-May-26 05:43 UTC.
Position N 30°06' W 093°17'.
Warning: this ship's position is 29 days out of date.

Length 17 m; draft 2.4 m.

Type: Towing. MMSI: 366961130.

Date/timePositionNaut miles runAvg speedWind from/ knotsBaromVisibWave heightAir tempDewpointWater temp
2015-Apr-26 18:03N 30°06' W 093°17'1 0.3
2015-Apr-26 14:33N 30°06' W 093°18'  
2015-Apr-24 10:13N 29°36' W 090°58'3 4.2
2015-Apr-24 09:30N 29°34' W 090°56'4 4.7
2015-Apr-24 08:33N 29°32' W 090°51'5 5.2
2015-Apr-24 07:33N 29°33' W 090°45'3 3.2
2015-Apr-24 06:33N 29°31' W 090°42'6 5.8
2015-Apr-24 05:33N 29°25' W 090°43'2 0.6
2015-Apr-24 02:09N 29°23' W 090°44'5 7.6
2015-Apr-24 01:33N 29°28' W 090°43'7 7.1
2015-Apr-24 00:33N 29°35' W 090°43'2 0.5
2015-Apr-23 20:31N 29°37' W 090°42'0 0.0
2015-Apr-23 19:28N 29°37' W 090°42'0 0.0
2015-Apr-23 18:31N 29°37' W 090°42'0 0.0
2015-Apr-23 17:31N 29°37' W 090°42'0 0.0
2015-Apr-23 16:31N 29°37' W 090°42'0 0.0
2015-Apr-23 15:28N 29°37' W 090°42'0 0.0
2015-Apr-23 14:31N 29°37' W 090°42'0 0.0
2015-Apr-23 13:32N 29°37' W 090°42'0 0.0
2015-Apr-23 12:32N 29°37' W 090°42'0 0.0
2015-Apr-23 11:32N 29°37' W 090°42'0 0.0
2015-Apr-23 10:32N 29°37' W 090°42'0 0.0
2015-Apr-23 09:32N 29°37' W 090°42'0 0.0
2015-Apr-23 08:32N 29°37' W 090°42'0 0.0
2015-Apr-23 07:32N 29°37' W 090°42'0 0.0
2015-Apr-23 06:32N 29°37' W 090°42'0 0.0
2015-Apr-23 05:32N 29°37' W 090°42'0 0.0
2015-Apr-23 04:32N 29°37' W 090°42'0 0.0
2015-Apr-23 03:32N 29°37' W 090°42'0 0.0
2015-Apr-23 02:32N 29°37' W 090°42'0 0.0
2015-Apr-23 01:32N 29°37' W 090°42'0 0.0
2015-Apr-23 00:29N 29°37' W 090°42'0 0.0
2015-Apr-22 23:32N 29°37' W 090°42'0 0.0
2015-Apr-22 22:32N 29°37' W 090°42'0 0.0
2015-Apr-22 21:32N 29°37' W 090°42'0 0.0
2015-Apr-22 20:32N 29°37' W 090°42'0 0.0
2015-Apr-22 19:32N 29°37' W 090°42'0 0.0
2015-Apr-22 18:32N 29°37' W 090°42'0 0.0
2015-Apr-22 17:29N 29°37' W 090°42'0 0.0
2015-Apr-22 16:32N 29°37' W 090°42'0 0.0
2015-Apr-22 15:32N 29°37' W 090°42'  
Track history (hours):
 
Tides and Currents Weather Stations Pressure Air Temp Water Temp Dewpoint Dewpoint Depression Visibility Wind Speed Wind Dir Waves Ship Positions

Lorraine L

Owner: Highland Towing LLC, Metairie, LA. More information available from US FCC via Universal Licensing System and Coast Guard Vessel Documentation Center.

Last reported at 2015-Apr-26 18:03 UTC. Time now 2015-May-26 05:43 UTC.
Position N 30°06' W 093°17'.
Warning: this ship's position is 29 days out of date.

Length 17 m; draft 2.4 m.

Type: Towing. MMSI: 366961130.

Date/timePositionNaut miles runAvg speedWind from/ knotsBaromVisibWave heightAir tempDewpointWater temp
2015-Apr-26 18:03N 30°06' W 093°17'1 0.3
2015-Apr-26 14:33N 30°06' W 093°18'  
2015-Apr-24 10:13N 29°36' W 090°58'3 4.2
2015-Apr-24 09:30N 29°34' W 090°56'4 4.7
2015-Apr-24 08:33N 29°32' W 090°51'5 5.2
2015-Apr-24 07:33N 29°33' W 090°45'3 3.2
2015-Apr-24 06:33N 29°31' W 090°42'6 5.8
2015-Apr-24 05:33N 29°25' W 090°43'2 0.6
2015-Apr-24 02:09N 29°23' W 090°44'5 7.6
2015-Apr-24 01:33N 29°28' W 090°43'7 7.1
2015-Apr-24 00:33N 29°35' W 090°43'2 0.5
2015-Apr-23 20:31N 29°37' W 090°42'0 0.0
2015-Apr-23 19:28N 29°37' W 090°42'0 0.0
2015-Apr-23 18:31N 29°37' W 090°42'0 0.0
2015-Apr-23 17:31N 29°37' W 090°42'0 0.0
2015-Apr-23 16:31N 29°37' W 090°42'0 0.0
2015-Apr-23 15:28N 29°37' W 090°42'0 0.0
2015-Apr-23 14:31N 29°37' W 090°42'0 0.0
2015-Apr-23 13:32N 29°37' W 090°42'0 0.0
2015-Apr-23 12:32N 29°37' W 090°42'0 0.0
2015-Apr-23 11:32N 29°37' W 090°42'0 0.0
2015-Apr-23 10:32N 29°37' W 090°42'0 0.0
2015-Apr-23 09:32N 29°37' W 090°42'0 0.0
2015-Apr-23 08:32N 29°37' W 090°42'0 0.0
2015-Apr-23 07:32N 29°37' W 090°42'0 0.0
2015-Apr-23 06:32N 29°37' W 090°42'0 0.0
2015-Apr-23 05:32N 29°37' W 090°42'0 0.0
2015-Apr-23 04:32N 29°37' W 090°42'0 0.0
2015-Apr-23 03:32N 29°37' W 090°42'0 0.0
2015-Apr-23 02:32N 29°37' W 090°42'0 0.0
2015-Apr-23 01:32N 29°37' W 090°42'0 0.0
2015-Apr-23 00:29N 29°37' W 090°42'0 0.0
2015-Apr-22 23:32N 29°37' W 090°42'0 0.0
2015-Apr-22 22:32N 29°37' W 090°42'0 0.0
2015-Apr-22 21:32N 29°37' W 090°42'0 0.0
2015-Apr-22 20:32N 29°37' W 090°42'0 0.0
2015-Apr-22 19:32N 29°37' W 090°42'0 0.0
2015-Apr-22 18:32N 29°37' W 090°42'0 0.0
2015-Apr-22 17:29N 29°37' W 090°42'0 0.0
2015-Apr-22 16:32N 29°37' W 090°42'0 0.0
2015-Apr-22 15:32N 29°37' W 090°42'  

Dump ship's entire track history